Language: 


Des rapports , des résumés tant et plus, au choix de chacun....


Données Historiques de Météogheer
Journalier Rapport pour Mars 9, 2018 Unitée:  Les deux    Impériale   Métrique
Suivant Jour »
Journalier Hebdomadaire Mensuel Annuel Sur mesure
  Max: Min: Moyenne:
Température: 52 °F /  11.1 °C 37.6 °F /  3.1 °C 45.5 °F /  7.5 °C
Point de rosée: 50 °F /  10.0 °C 35.6 °F /  2.0 °C 43.3 °F /  6.3 °C
Humidité: 98% 81% 90%
Vent: 10.3mph /  16.6km/h - 2.2mph /  3.6km/h
Rafales: 12.8mph /  20.6km/h - -
Vent- - South
Pression: 29.7 in /  1006.0 hPa 29.5 in /  998.9 hPa -
Pluie: 0.11 in /  2.8 mm    
Historical Graphs
 
 
Données tabulaires pour Mars 9, 2018
Heure Température Point de rosée Pression Vent Vent Rafales Humidité Pluie Taux (Horaire) Conditions
00:00 39.7 °F /  4.3 °C 37.4 °F /  3.0 °C 29.6in /  1002.9hPa Calm     87% 0in /  0.0mm
00:10 39.7 °F /  4.3 °C 37.4 °F /  3.0 °C 29.6in /  1002.9hPa SW 5.4mph /  8.7km/h 6.3mph /  10.1km/h 87% 0in /  0.0mm
00:20 39.7 °F /  4.3 °C 37.4 °F /  3.0 °C 29.6in /  1002.9hPa SW 6.5mph /  10.5km/h 6.5mph /  10.5km/h 87% 0in /  0.0mm
00:30 39.7 °F /  4.3 °C 37.4 °F /  3.0 °C 29.6in /  1002.9hPa WSW 5.6mph /  9.0km/h 5.6mph /  9.0km/h 87% 0in /  0.0mm
00:40 39.7 °F /  4.3 °C 37.4 °F /  3.0 °C 29.6in /  1002.9hPa SSW 6.3mph /  10.1km/h 6.3mph /  10.1km/h 87% 0in /  0.0mm
00:50 39.7 °F /  4.3 °C 37.4 °F /  3.0 °C 29.6in /  1002.9hPa SSW 6.3mph /  10.1km/h 6.3mph /  10.1km/h 87% 0in /  0.0mm
01:00 39.7 °F /  4.3 °C 37.4 °F /  3.0 °C 29.6in /  1002.9hPa SSW 6.3mph /  10.1km/h 6.3mph /  10.1km/h 87% 0in /  0.0mm
01:10 39.7 °F /  4.3 °C 37.4 °F /  3.0 °C 29.6in /  1002.9hPa SSW 4mph /  6.4km/h 4mph /  6.4km/h 87% 0in /  0.0mm
01:20 39.7 °F /  4.3 °C 37.4 °F /  3.0 °C 29.6in /  1002.9hPa Calm   4mph /  6.4km/h 87% 0in /  0.0mm
01:30 39.7 °F /  4.3 °C 37.4 °F /  3.0 °C 29.6in /  1002.9hPa Calm     87% 0in /  0.0mm
01:40 39.7 °F /  4.3 °C 37.4 °F /  3.0 °C 29.6in /  1002.9hPa Calm     87% 0in /  0.0mm
01:50 39.7 °F /  4.3 °C 37.4 °F /  3.0 °C 29.6in /  1002.9hPa Calm     87% 0in /  0.0mm
02:00 39.7 °F /  4.3 °C 37.4 °F /  3.0 °C 29.6in /  1003.9hPa SSW 5.4mph /  8.7km/h 5.4mph /  8.7km/h 87% 0in /  0.0mm
02:10 39.7 °F /  4.3 °C 37.4 °F /  3.0 °C 29.6in /  1003.9hPa Calm   5.4mph /  8.7km/h 87% 0in /  0.0mm
02:20 39.7 °F /  4.3 °C 37.4 °F /  3.0 °C 29.6in /  1002.9hPa Calm   5.4mph /  8.7km/h 87% 0in /  0.0mm
02:30 39.7 °F /  4.3 °C 37.4 °F /  3.0 °C 29.6in /  1003.9hPa Calm   5.4mph /  8.7km/h 87% 0in /  0.0mm
02:40 39.7 °F /  4.3 °C 37.4 °F /  3.0 °C 29.6in /  1003.9hPa Calm   5.4mph /  8.7km/h 87% 0in /  0.0mm
02:50 39.7 °F /  4.3 °C 37.4 °F /  3.0 °C 29.6in /  1003.9hPa Calm   5.4mph /  8.7km/h 87% 0in /  0.0mm
03:00 39.7 °F /  4.3 °C 37.4 °F /  3.0 °C 29.6in /  1003.9hPa WSW 3.6mph /  5.8km/h 3.6mph /  5.8km/h 87% 0in /  0.0mm
03:10 39.7 °F /  4.3 °C 37.4 °F /  3.0 °C 29.6in /  1003.9hPa WSW 3.6mph /  5.8km/h 3.6mph /  5.8km/h 87% 0in /  0.0mm
03:15 39.7 °F /  4.3 °C 37.4 °F /  3.0 °C 29.6in /  1002.9hPa WSW 3.6mph /  5.8km/h 3.6mph /  5.8km/h 87% 0in /  0.0mm
03:20 39.7 °F /  4.3 °C 37.4 °F /  3.0 °C 29.6in /  1002.9hPa WSW 3.6mph /  5.8km/h 3.6mph /  5.8km/h 87% 0in /  0.0mm
03:30 39.7 °F /  4.3 °C 37.4 °F /  3.0 °C 29.6in /  1003.9hPa WSW 3.6mph /  5.8km/h 3.6mph /  5.8km/h 87% 0in /  0.0mm
03:40 39.7 °F /  4.3 °C 37.4 °F /  3.0 °C 29.6in /  1003.9hPa Calm     87% 0in /  0.0mm
03:50 39.7 °F /  4.3 °C 37.4 °F /  3.0 °C 29.6in /  1003.9hPa Calm     87% 0in /  0.0mm
04:00 39.7 °F /  4.3 °C 37.4 °F /  3.0 °C 29.6in /  1003.9hPa Calm     87% 0in /  0.0mm
04:05 39.7 °F /  4.3 °C 37.4 °F /  3.0 °C 29.6in /  1003.9hPa Calm     87% 0in /  0.0mm
04:10 39.7 °F /  4.3 °C 37.4 °F /  3.0 °C 29.6in /  1003.9hPa Calm     87% 0in /  0.0mm
04:20 39.7 °F /  4.3 °C 37.4 °F /  3.0 °C 29.6in /  1003.9hPa Calm     87% 0in /  0.0mm
04:25 39.7 °F /  4.3 °C 37.4 °F /  3.0 °C 29.6in /  1003.9hPa Calm     87% 0in /  0.0mm
04:30 39.7 °F /  4.3 °C 37.4 °F /  3.0 °C 29.7in /  1005.0hPa Calm     87% 0in /  0.0mm
04:35 39.7 °F /  4.3 °C 37.4 °F /  3.0 °C 29.7in /  1005.0hPa Calm     87% 0in /  0.0mm
04:40 39.7 °F /  4.3 °C 37.4 °F /  3.0 °C 29.7in /  1005.0hPa Calm     87% 0in /  0.0mm
04:50 39.7 °F /  4.3 °C 37.4 °F /  3.0 °C 29.6in /  1003.9hPa Calm     87% 0in /  0.0mm
05:00 39.7 °F /  4.3 °C 37.4 °F /  3.0 °C 29.7in /  1005.0hPa Calm     87% 0in /  0.0mm
05:05 39.7 °F /  4.3 °C 37.4 °F /  3.0 °C 29.7in /  1005.0hPa Calm     87% 0in /  0.0mm
05:10 39.7 °F /  4.3 °C 37.4 °F /  3.0 °C 29.7in /  1005.0hPa Calm     87% 0in /  0.0mm
05:20 39.7 °F /  4.3 °C 37.4 °F /  3.0 °C 29.7in /  1005.0hPa Calm     87% 0in /  0.0mm
05:30 39.7 °F /  4.3 °C 37.4 °F /  3.0 °C 29.6in /  1003.9hPa Calm     87% 0in /  0.0mm
05:35 39.7 °F /  4.3 °C 37.4 °F /  3.0 °C 29.6in /  1003.9hPa Calm     87% 0in /  0.0mm
05:40 39.7 °F /  4.3 °C 37.4 °F /  3.0 °C 29.6in /  1003.9hPa Calm     87% 0in /  0.0mm
05:50 39.7 °F /  4.3 °C 37.4 °F /  3.0 °C 29.7in /  1005.0hPa Calm     87% 0in /  0.0mm
05:55 39.7 °F /  4.3 °C 37.4 °F /  3.0 °C 29.7in /  1005.0hPa Calm     87% 0in /  0.0mm
06:00 39.7 °F /  4.3 °C 37.4 °F /  3.0 °C 29.7in /  1005.0hPa Calm     87% 0in /  0.0mm
06:10 39.7 °F /  4.3 °C 37.4 °F /  3.0 °C 29.7in /  1005.0hPa Calm     87% 0in /  0.0mm
06:20 39.7 °F /  4.3 °C 37.4 °F /  3.0 °C 29.6in /  1003.9hPa Calm     87% 0in /  0.0mm
06:30 39.7 °F /  4.3 °C 37.4 °F /  3.0 °C 29.6in /  1003.9hPa Calm     87% 0in /  0.0mm
06:35 39.7 °F /  4.3 °C 37.4 °F /  3.0 °C 29.6in /  1003.9hPa Calm     87% 0in /  0.0mm
06:40 39.7 °F /  4.3 °C 37.4 °F /  3.0 °C 29.6in /  1003.9hPa Calm     87% 0in /  0.0mm
06:50 39.7 °F /  4.3 °C 37.4 °F /  3.0 °C 29.6in /  1003.9hPa Calm     87% 0in /  0.0mm
06:55 39.7 °F /  4.3 °C 37.4 °F /  3.0 °C 29.6in /  1003.9hPa Calm     87% 0in /  0.0mm
07:00 39.7 °F /  4.3 °C 37.4 °F /  3.0 °C 29.7in /  1005.0hPa Calm     87% 0in /  0.0mm
07:10 39.7 °F /  4.3 °C 37.4 °F /  3.0 °C 29.7in /  1005.0hPa Calm     87% 0in /  0.0mm
07:20 37.6 °F /  3.1 °C 35.6 °F /  2.0 °C 29.7in /  1005.0hPa Calm   1.1mph /  1.8km/h 94% 0in /  0.0mm
07:30 37.6 °F /  3.1 °C 35.6 °F /  2.0 °C 29.7in /  1005.0hPa Calm   1.3mph /  2.1km/h 94% 0in /  0.0mm
07:40 37.8 °F /  3.2 °C 37.4 °F /  3.0 °C 29.7in /  1005.0hPa Calm     95% 0in /  0.0mm
07:50 37.9 °F /  3.3 °C 37.4 °F /  3.0 °C 29.7in /  1005.0hPa Calm   1.3mph /  2.1km/h 95% 0in /  0.0mm
08:00 38.1 °F /  3.4 °C 37.4 °F /  3.0 °C 29.7in /  1005.0hPa Calm   0.9mph /  1.4km/h 95% 0in /  0.0mm
08:05 38.3 °F /  3.5 °C 37.4 °F /  3.0 °C 29.7in /  1005.0hPa Calm   0.9mph /  1.4km/h 95% 0in /  0.0mm
08:10 38.5 °F /  3.6 °C 37.4 °F /  3.0 °C 29.7in /  1005.0hPa Calm     95% 0in /  0.0mm
08:20 39.2 °F /  4.0 °C 39.2 °F /  4.0 °C 29.6in /  1003.9hPa Calm     96% 0in /  0.0mm
08:30 39.6 °F /  4.2 °C 39.2 °F /  4.0 °C 29.7in /  1005.0hPa Calm     96% 0in /  0.0mm
08:40 40.3 °F /  4.6 °C 39.2 °F /  4.0 °C 29.7in /  1005.0hPa Calm     96% 0in /  0.0mm
08:50 40.6 °F /  4.8 °C 39.2 °F /  4.0 °C 29.7in /  1005.0hPa Calm     96% 0in /  0.0mm
09:00 41 °F /  5.0 °C 41 °F /  5.0 °C 29.6in /  1003.9hPa Calm     95% 0in /  0.0mm
09:05 41.4 °F /  5.2 °C 41 °F /  5.0 °C 29.6in /  1003.9hPa Calm     95% 0in /  0.0mm
09:10 41.5 °F /  5.3 °C 41 °F /  5.0 °C 29.6in /  1003.9hPa Calm     95% 0in /  0.0mm
09:20 41.9 °F /  5.5 °C 41 °F /  5.0 °C 29.7in /  1005.0hPa Calm   1.1mph /  1.8km/h 95% 0in /  0.0mm
09:30 42.3 °F /  5.7 °C 41 °F /  5.0 °C 29.7in /  1005.0hPa Calm   4mph /  6.4km/h 95% 0in /  0.0mm
09:40 43.3 °F /  6.3 °C 42.8 °F /  6.0 °C 29.7in /  1005.0hPa Calm   2mph /  3.2km/h 94% 0in /  0.0mm
09:50 44.2 °F /  6.8 °C 42.8 °F /  6.0 °C 29.7in /  1005.0hPa Calm   1.3mph /  2.1km/h 94% 0in /  0.0mm
10:00 44.6 °F /  7.0 °C 42.8 °F /  6.0 °C 29.7in /  1005.0hPa Calm   3.8mph /  6.1km/h 93% 0in /  0.0mm
10:10 45.3 °F /  7.4 °C 42.8 °F /  6.0 °C 29.7in /  1005.0hPa Calm   6.3mph /  10.1km/h 90% 0in /  0.0mm
10:20 45.5 °F /  7.5 °C 42.8 °F /  6.0 °C 29.7in /  1005.0hPa Calm   7.6mph /  12.2km/h 88% 0in /  0.0mm
10:30 45.9 °F /  7.7 °C 42.8 °F /  6.0 °C 29.6in /  1003.9hPa Calm   7.2mph /  11.6km/h 88% 0in /  0.0mm
10:40 45.9 °F /  7.7 °C 42.8 °F /  6.0 °C 29.6in /  1003.9hPa South 2.9mph /  4.7km/h 5.4mph /  8.7km/h 88% 0in /  0.0mm
10:50 45.9 °F /  7.7 °C 42.8 °F /  6.0 °C 29.7in /  1005.0hPa SE 5.4mph /  8.7km/h 5.6mph /  9.0km/h 87% 0in /  0.0mm
11:00 45.9 °F /  7.7 °C 42.8 °F /  6.0 °C 29.7in /  1005.0hPa Calm   5.6mph /  9.0km/h 87% 0in /  0.0mm
11:10 46 °F /  7.8 °C 42.8 °F /  6.0 °C 29.7in /  1005.0hPa South 0.9mph /  1.4km/h 6mph /  9.7km/h 87% 0in /  0.0mm
11:20 46.2 °F /  7.9 °C 42.8 °F /  6.0 °C 29.7in /  1006.0hPa Calm   5.8mph /  9.3km/h 87% 0in /  0.0mm
11:30 46.2 °F /  7.9 °C 42.8 °F /  6.0 °C 29.7in /  1005.0hPa SSE 2.7mph /  4.3km/h 6.3mph /  10.1km/h 87% 0in /  0.0mm
11:39 46.6 °F /  8.1 °C 42.8 °F /  6.0 °C 29.7in /  1005.0hPa Calm   6mph /  9.7km/h 86% 0in /  0.0mm
11:45 46.9 °F /  8.3 °C 44.6 °F /  7.0 °C 29.7in /  1005.0hPa SSE 1.6mph /  2.6km/h 6mph /  9.7km/h 87% 0in /  0.0mm
11:50 47.3 °F /  8.5 °C 44.6 °F /  7.0 °C 29.7in /  1005.0hPa South 5.4mph /  8.7km/h 7.4mph /  11.9km/h 87% 0in /  0.0mm
11:59 48.6 °F /  9.2 °C 44.6 °F /  7.0 °C 29.7in /  1005.0hPa Calm   5.4mph /  8.7km/h 86% 0in /  0.0mm
12:05 48.9 °F /  9.4 °C 44.6 °F /  7.0 °C 29.7in /  1005.0hPa Calm   6.5mph /  10.5km/h 85% 0in /  0.0mm
12:10 49.3 °F /  9.6 °C 46.4 °F /  8.0 °C 29.7in /  1005.0hPa SSE 5.6mph /  9.0km/h 6.5mph /  10.5km/h 85% 0in /  0.0mm
12:20 49.6 °F /  9.8 °C 44.6 °F /  7.0 °C 29.7in /  1005.0hPa South 4mph /  6.4km/h 6.9mph /  11.1km/h 82% 0in /  0.0mm
12:25 49.6 °F /  9.8 °C 44.6 °F /  7.0 °C 29.7in /  1005.0hPa South 7.4mph /  11.9km/h 8.5mph /  13.7km/h 82% 0in /  0.0mm
12:30 49.8 °F /  9.9 °C 44.6 °F /  7.0 °C 29.7in /  1005.0hPa South 1.1mph /  1.8km/h 8.5mph /  13.7km/h 82% 0in /  0.0mm
12:35 49.6 °F /  9.8 °C 44.6 °F /  7.0 °C 29.7in /  1005.0hPa South 5.4mph /  8.7km/h 7.6mph /  12.2km/h 82% 0in /  0.0mm
12:40 49.5 °F /  9.7 °C 44.6 °F /  7.0 °C 29.7in /  1005.0hPa South 4mph /  6.4km/h 8.1mph /  13.0km/h 81% 0in /  0.0mm
12:50 48.9 °F /  9.4 °C 44.6 °F /  7.0 °C 29.7in /  1005.0hPa SSW 6.7mph /  10.8km/h 8.7mph /  14.0km/h 83% 0in /  0.0mm
12:55 48.9 °F /  9.4 °C 44.6 °F /  7.0 °C 29.7in /  1005.0hPa SE 4.7mph /  7.6km/h 8.1mph /  13.0km/h 84% 0in /  0.0mm
13:00 48.9 °F /  9.4 °C 44.6 °F /  7.0 °C 29.6in /  1003.9hPa SSE 4.3mph /  6.9km/h 7.4mph /  11.9km/h 84% 0in /  0.0mm
13:10 48.6 °F /  9.2 °C 44.6 °F /  7.0 °C 29.6in /  1003.9hPa SE 4.7mph /  7.6km/h 8.1mph /  13.0km/h 85% 0in /  0.0mm
13:15 48.4 °F /  9.1 °C 44.6 °F /  7.0 °C 29.6in /  1003.9hPa South 6.7mph /  10.8km/h 6.7mph /  10.8km/h 85% 0in /  0.0mm
13:20 48.6 °F /  9.2 °C 44.6 °F /  7.0 °C 29.6in /  1003.9hPa SSE 6mph /  9.7km/h 6.7mph /  10.8km/h 86% 0in /  0.0mm
13:30 48.4 °F /  9.1 °C 44.6 °F /  7.0 °C 29.6in /  1003.9hPa SSE 6.3mph /  10.1km/h 6.3mph /  10.1km/h 88% 0in /  0.0mm
13:35 48.2 °F /  9.0 °C 44.6 °F /  7.0 °C 29.6in /  1003.9hPa SSE 2.7mph /  4.3km/h 9.2mph /  14.8km/h 88% 0in /  0.0mm
13:40 48 °F /  8.9 °C 46.4 °F /  8.0 °C 29.6in /  1003.9hPa SE 7.4mph /  11.9km/h 9.2mph /  14.8km/h 89% 0.01in /  0.3mm
13:45 48 °F /  8.9 °C 46.4 °F /  8.0 °C 29.6in /  1003.9hPa Calm   7.4mph /  11.9km/h 89% 0.01in /  0.3mm
13:50 48 °F /  8.9 °C 46.4 °F /  8.0 °C 29.6in /  1003.9hPa Calm   6.5mph /  10.5km/h 89% 0.01in /  0.3mm
14:00 48.4 °F /  9.1 °C 46.4 °F /  8.0 °C 29.6in /  1002.9hPa South 3.8mph /  6.1km/h 8.1mph /  13.0km/h 90% 0.01in /  0.3mm
14:05 48.7 °F /  9.3 °C 46.4 °F /  8.0 °C 29.6in /  1002.9hPa SE 5.4mph /  8.7km/h 7.6mph /  12.2km/h 90% 0.01in /  0.3mm
14:10 48.9 °F /  9.4 °C 46.4 °F /  8.0 °C 29.6in /  1002.9hPa SSE 2.2mph /  3.5km/h 7.6mph /  12.2km/h 91% 0.01in /  0.3mm
14:20 49.3 °F /  9.6 °C 46.4 °F /  8.0 °C 29.6in /  1002.9hPa SE 4.7mph /  7.6km/h 6.5mph /  10.5km/h 90% 0.01in /  0.3mm
14:25 49.5 °F /  9.7 °C 46.4 °F /  8.0 °C 29.6in /  1002.9hPa SE 6mph /  9.7km/h 7.8mph /  12.6km/h 90% 0.01in /  0.3mm
14:30 50 °F /  10.0 °C 48.2 °F /  9.0 °C 29.6in /  1002.9hPa Calm   7.8mph /  12.6km/h 90% 0.01in /  0.3mm
14:40 50.9 °F /  10.5 °C 48.2 °F /  9.0 °C 29.6in /  1002.9hPa Calm   8.1mph /  13.0km/h 89% 0in /  0.0mm
14:45 51.3 °F /  10.7 °C 48.2 °F /  9.0 °C 29.6in /  1001.9hPa Calm   8.1mph /  13.0km/h 88% 0in /  0.0mm
14:50 51.4 °F /  10.8 °C 48.2 °F /  9.0 °C 29.6in /  1001.9hPa Calm   7.4mph /  11.9km/h 87% 0in /  0.0mm
15:00 51.8 °F /  11.0 °C 48.2 °F /  9.0 °C 29.6in /  1002.9hPa SE 8.5mph /  13.7km/h 8.5mph /  13.7km/h 85% 0in /  0.0mm
15:05 52 °F /  11.1 °C 48.2 °F /  9.0 °C 29.6in /  1002.9hPa Calm   8.5mph /  13.7km/h 85% 0in /  0.0mm
15:10 52 °F /  11.1 °C 48.2 °F /  9.0 °C 29.6in /  1002.9hPa SSE 4.3mph /  6.9km/h 8.5mph /  13.7km/h 85% 0in /  0.0mm
15:20 51.8 °F /  11.0 °C 48.2 °F /  9.0 °C 29.6in /  1001.9hPa SSE 1.1mph /  1.8km/h 8.5mph /  13.7km/h 84% 0in /  0.0mm
15:25 51.8 °F /  11.0 °C 46.4 °F /  8.0 °C 29.6in /  1001.9hPa ESE 3.1mph /  5.0km/h 8.1mph /  13.0km/h 83% 0in /  0.0mm
15:30 51.8 °F /  11.0 °C 46.4 °F /  8.0 °C 29.6in /  1001.9hPa SE 3.6mph /  5.8km/h 8.9mph /  14.3km/h 83% 0in /  0.0mm
15:40 51.6 °F /  10.9 °C 46.4 °F /  8.0 °C 29.6in /  1001.9hPa Calm   11.4mph /  18.3km/h 83% 0in /  0.0mm
15:45 51.4 °F /  10.8 °C 46.4 °F /  8.0 °C 29.6in /  1001.9hPa Calm   9.6mph /  15.4km/h 83% 0in /  0.0mm
15:50 51.4 °F /  10.8 °C 46.4 °F /  8.0 °C 29.6in /  1001.9hPa SSE 6.3mph /  10.1km/h 9.6mph /  15.4km/h 84% 0in /  0.0mm
16:00 50.9 °F /  10.5 °C 48.2 °F /  9.0 °C 29.6in /  1001.9hPa SE 4.9mph /  7.9km/h 8.5mph /  13.7km/h 85% 0in /  0.0mm
16:05 50.7 °F /  10.4 °C 46.4 °F /  8.0 °C 29.6in /  1001.9hPa SSE 4mph /  6.4km/h 12.3mph /  19.8km/h 84% 0in /  0.0mm
16:15 50.7 °F /  10.4 °C 46.4 °F /  8.0 °C 29.6in /  1001.9hPa SSE 8.1mph /  13.0km/h 10.1mph /  16.3km/h 84% 0in /  0.0mm
16:20 50.7 °F /  10.4 °C 46.4 °F /  8.0 °C 29.6in /  1001.9hPa SE 7.6mph /  12.2km/h 9.8mph /  15.8km/h 84% 0in /  0.0mm
16:29 50.7 °F /  10.4 °C 46.4 °F /  8.0 °C 29.6in /  1000.9hPa ESE 8.7mph /  14.0km/h 11mph /  17.7km/h 85% 0in /  0.0mm
16:35 50.7 °F /  10.4 °C 46.4 °F /  8.0 °C 29.6in /  1000.9hPa SE 6.5mph /  10.5km/h 11mph /  17.7km/h 85% 0in /  0.0mm
16:40 50.5 °F /  10.3 °C 46.4 °F /  8.0 °C 29.6in /  1000.9hPa South 3.4mph /  5.5km/h 11mph /  17.7km/h 85% 0in /  0.0mm
16:50 50.4 °F /  10.2 °C 46.4 °F /  8.0 °C 29.6in /  1000.9hPa SSE 5.8mph /  9.3km/h 10.1mph /  16.3km/h 85% 0in /  0.0mm
17:00 50.2 °F /  10.1 °C 46.4 °F /  8.0 °C 29.6in /  1000.9hPa SE 4.5mph /  7.2km/h 12.8mph /  20.6km/h 86% 0in /  0.0mm
17:10 50.2 °F /  10.1 °C 46.4 °F /  8.0 °C 29.6in /  1000.9hPa SSE 6.3mph /  10.1km/h 10.3mph /  16.6km/h 86% 0in /  0.0mm
17:15 50.2 °F /  10.1 °C 46.4 °F /  8.0 °C 29.6in /  1000.9hPa Calm   11mph /  17.7km/h 86% 0in /  0.0mm
17:20 50.2 °F /  10.1 °C 46.4 °F /  8.0 °C 29.6in /  1000.9hPa South 6.5mph /  10.5km/h 11mph /  17.7km/h 86% 0in /  0.0mm
17:30 50.2 °F /  10.1 °C 46.4 °F /  8.0 °C 29.6in /  1000.9hPa SSE 3.1mph /  5.0km/h 8.7mph /  14.0km/h 87% 0in /  0.0mm
17:35 50.2 °F /  10.1 °C 46.4 °F /  8.0 °C 29.6in /  1000.9hPa SSE 5.4mph /  8.7km/h 8.7mph /  14.0km/h 88% 0in /  0.0mm
17:40 50 °F /  10.0 °C 46.4 °F /  8.0 °C 29.6in /  1000.9hPa Calm   9.6mph /  15.4km/h 88% 0in /  0.0mm
17:45 50 °F /  10.0 °C 46.4 °F /  8.0 °C 29.5in /  999.9hPa Calm   9.6mph /  15.4km/h 88% 0in /  0.0mm
17:50 50 °F /  10.0 °C 48.2 °F /  9.0 °C 29.5in /  999.9hPa SSE 10.3mph /  16.6km/h 10.3mph /  16.6km/h 89% 0in /  0.0mm
18:00 49.6 °F /  9.8 °C 48.2 °F /  9.0 °C 29.6in /  1000.9hPa SSE 5.4mph /  8.7km/h 11mph /  17.7km/h 92% 0in /  0.0mm
18:05 49.5 °F /  9.7 °C 48.2 °F /  9.0 °C 29.6in /  1000.9hPa SSE 4mph /  6.4km/h 8.7mph /  14.0km/h 93% 0in /  0.0mm
18:10 49.3 °F /  9.6 °C 48.2 °F /  9.0 °C 29.6in /  1000.9hPa Calm   8.5mph /  13.7km/h 93% 0in /  0.0mm
18:20 49.1 °F /  9.5 °C 48.2 °F /  9.0 °C 29.5in /  999.9hPa SSE 3.6mph /  5.8km/h 6.5mph /  10.5km/h 94% 0in /  0.0mm
18:25 49.1 °F /  9.5 °C 48.2 °F /  9.0 °C 29.5in /  999.9hPa Calm   5.6mph /  9.0km/h 95% 0in /  0.0mm
18:30 48.9 °F /  9.4 °C 48.2 °F /  9.0 °C 29.6in /  1000.9hPa SSE 4mph /  6.4km/h 5.6mph /  9.0km/h 96% 0in /  0.0mm
18:40 48.9 °F /  9.4 °C 48.2 °F /  9.0 °C 29.6in /  1000.9hPa SSE 4mph /  6.4km/h 7.4mph /  11.9km/h 96% 0in /  0.0mm
18:50 48.7 °F /  9.3 °C 48.2 °F /  9.0 °C 29.5in /  999.9hPa Calm   4.3mph /  6.9km/h 96% 0in /  0.0mm
19:00 48.7 °F /  9.3 °C 48.2 °F /  9.0 °C 29.6in /  1000.9hPa Calm   6.5mph /  10.5km/h 97% 0in /  0.0mm
19:10 48.7 °F /  9.3 °C 48.2 °F /  9.0 °C 29.6in /  1000.9hPa SSE 5.4mph /  8.7km/h 6mph /  9.7km/h 97% 0in /  0.0mm
19:20 48.7 °F /  9.3 °C 48.2 °F /  9.0 °C 29.6in /  1000.9hPa SSE 2.9mph /  4.7km/h 5.6mph /  9.0km/h 97% 0in /  0.0mm
19:25 48.7 °F /  9.3 °C 48.2 °F /  9.0 °C 29.6in /  1000.9hPa Calm   5.6mph /  9.0km/h 97% 0in /  0.0mm
19:30 48.7 °F /  9.3 °C 48.2 °F /  9.0 °C 29.6in /  1000.9hPa Calm   4mph /  6.4km/h 97% 0in /  0.0mm
19:40 48.7 °F /  9.3 °C 48.2 °F /  9.0 °C 29.6in /  1000.9hPa Calm   5.6mph /  9.0km/h 97% 0in /  0.0mm
19:50 48.7 °F /  9.3 °C 48.2 °F /  9.0 °C 29.6in /  1000.9hPa Calm   2.9mph /  4.7km/h 98% 0.01in /  0.3mm
19:55 48.7 °F /  9.3 °C 48.2 °F /  9.0 °C 29.6in /  1000.9hPa Calm   5.8mph /  9.3km/h 98% 0.01in /  0.3mm
20:00 48.7 °F /  9.3 °C 48.2 °F /  9.0 °C 29.6in /  1000.9hPa Calm   5.8mph /  9.3km/h 98% 0.01in /  0.3mm
20:10 48.7 °F /  9.3 °C 48.2 °F /  9.0 °C 29.6in /  1000.9hPa Calm   5.6mph /  9.0km/h 98% 0.01in /  0.3mm
20:20 48.9 °F /  9.4 °C 48.2 °F /  9.0 °C 29.6in /  1001.9hPa Calm   4.9mph /  7.9km/h 98% 0.01in /  0.3mm
20:30 48.9 °F /  9.4 °C 48.2 °F /  9.0 °C 29.6in /  1000.9hPa SSE 4.7mph /  7.6km/h 4.7mph /  7.6km/h 98% 0.01in /  0.3mm
20:35 48.9 °F /  9.4 °C 48.2 °F /  9.0 °C 29.6in /  1000.9hPa SSW 4.9mph /  7.9km/h 5.6mph /  9.0km/h 98% 0.02in /  0.5mm
20:40 48.9 °F /  9.4 °C 48.2 °F /  9.0 °C 29.6in /  1000.9hPa Calm   5.6mph /  9.0km/h 98% 0.02in /  0.5mm
20:45 48.9 °F /  9.4 °C 48.2 °F /  9.0 °C 29.6in /  1000.9hPa Calm   4.9mph /  7.9km/h 98% 0.01in /  0.3mm
20:50 48.9 °F /  9.4 °C 48.2 °F /  9.0 °C 29.6in /  1000.9hPa SSE 2.5mph /  4.0km/h 3.4mph /  5.5km/h 98% 0.01in /  0.3mm
21:00 48.9 °F /  9.4 °C 48.2 °F /  9.0 °C 29.5in /  999.9hPa Calm   6mph /  9.7km/h 98% 0.01in /  0.3mm
21:10 48.9 °F /  9.4 °C 48.2 °F /  9.0 °C 29.5in /  999.9hPa South 4.9mph /  7.9km/h 6.9mph /  11.1km/h 98% 0.01in /  0.3mm
21:25 48.9 °F /  9.4 °C 48.2 °F /  9.0 °C 29.5in /  999.9hPa South 4mph /  6.4km/h 5.8mph /  9.3km/h 98% 0.01in /  0.3mm
21:30 49.1 °F /  9.5 °C 50 °F /  10.0 °C 29.5in /  999.9hPa SSW 4.3mph /  6.9km/h 7.6mph /  12.2km/h 98% 0.01in /  0.3mm
21:40 49.1 °F /  9.5 °C 50 °F /  10.0 °C 29.5in /  999.9hPa SSW 3.1mph /  5.0km/h 8.1mph /  13.0km/h 98% 0.01in /  0.3mm
21:50 49.1 °F /  9.5 °C 50 °F /  10.0 °C 29.5in /  998.9hPa SW 8.1mph /  13.0km/h 8.1mph /  13.0km/h 98% 0.01in /  0.3mm
22:00 49.3 °F /  9.6 °C 50 °F /  10.0 °C 29.5in /  998.9hPa South 5.4mph /  8.7km/h 6.3mph /  10.1km/h 98% 0.01in /  0.3mm
22:10 49.3 °F /  9.6 °C 50 °F /  10.0 °C 29.5in /  998.9hPa South 3.8mph /  6.1km/h 6.3mph /  10.1km/h 98% 0.02in /  0.5mm
22:20 49.5 °F /  9.7 °C 50 °F /  10.0 °C 29.5in /  998.9hPa South 5.6mph /  9.0km/h 6.5mph /  10.5km/h 98% 0.02in /  0.5mm
22:30 49.5 °F /  9.7 °C 50 °F /  10.0 °C 29.5in /  998.9hPa South 6mph /  9.7km/h 6.3mph /  10.1km/h 98% 0.02in /  0.5mm
22:40 49.8 °F /  9.9 °C 50 °F /  10.0 °C 29.5in /  998.9hPa South 4.3mph /  6.9km/h 9.6mph /  15.4km/h 98% 0.01in /  0.3mm
22:50 49.8 °F /  9.9 °C 50 °F /  10.0 °C 29.5in /  998.9hPa SW 2.9mph /  4.7km/h 8.5mph /  13.7km/h 98% 0.02in /  0.5mm
23:00 49.8 °F /  9.9 °C 50 °F /  10.0 °C 29.5in /  998.9hPa South 4mph /  6.4km/h 6.3mph /  10.1km/h 98% 0.05in /  1.3mm
23:10 49.8 °F /  9.9 °C 50 °F /  10.0 °C 29.5in /  998.9hPa Calm   5.8mph /  9.3km/h 98% 0.03in /  0.8mm
23:20 49.8 °F /  9.9 °C 50 °F /  10.0 °C 29.5in /  998.9hPa South 2.2mph /  3.5km/h 5.8mph /  9.3km/h 98% 0.05in /  1.3mm
23:30 49.8 °F /  9.9 °C 50 °F /  10.0 °C 29.5in /  998.9hPa South 4mph /  6.4km/h 4.9mph /  7.9km/h 98% 0.05in /  1.3mm
23:40 49.8 °F /  9.9 °C 50 °F /  10.0 °C 29.5in /  998.9hPa Calm   7.2mph /  11.6km/h 98% 0.05in /  1.3mm
23:50 49.8 °F /  9.9 °C 50 °F /  10.0 °C 29.5in /  998.9hPa Calm   3.8mph /  6.1km/h 98% 0.04in /  1.0mm
Données Historique de Météo Turbie

Mise a jour : 18/06/2018 07:39:13
Généré par Cumulus 1.9.4 (1099)